Latest Coastal Weather Observations for Eucla

IDW60701

Issued at 1:33 am WST Thursday 3 September 2026 (issued every 10 minutes, with the page automatically refreshed every 10 minutes)

About coastal observations | Map of coastal stations | Coastal observations for WA | Marine services | Other Formats
Station Details ID: 011003 Name: EUCLA Lat: -31.68 Lon: 128.90 Height: 93.1 m
Data from the previous 72 hours. | See also: Recent months at Eucla
Date/Time
WST
Wind Sea
Height
m
Swell Vis
km
Cloud Weather Temp
°C
Press
MSL
hPa
Rain since
9am
mm
Dir  Spd
kts
Gust
kts
Height
m
Period
s
Dir
03/01:30am ENE 4 6 - - - - - - - 11.4 1019.4 0.0
03/01:00am E 4 5 - - - - - - - 12.2 1019.6 0.0
03/12:30am E 5 6 - - - - - - - 12.2 1019.5 0.0
03/12:00am E 4 5 - - - - - - - 12.7 1019.6 0.0
 
Date/Time
WST
Wind Sea
Height
m
Swell Vis
km
Cloud Weather Temp
°C
Press
MSL
hPa
Rain since
9am
mm
Dir  Spd
kts
Gust
kts
Height
m
Period
s
Dir
02/11:30pm ESE 4 5 - - - - - - - 13.1 1019.5 0.0
02/11:00pm ESE 5 6 - - - - - - - 13.8 1019.6 0.0
02/10:30pm ESE 6 7 - - - - - - - 14.1 1019.6 0.0
02/10:00pm ESE 6 7 - - - - - - - 14.7 1019.6 0.0
02/09:30pm ESE 6 8 - - - - - - - 15.1 1019.5 0.0
02/09:00pm ESE 6 9 - - - - - - - 15.5 1019.8 0.0
02/08:30pm ESE 7 10 - - - - - - - 15.5 1019.5 0.0
02/08:00pm E 6 9 - - - - - - - 15.7 1019.1 0.0
02/07:30pm ESE 6 10 - - - - - - - 15.9 1019.3 0.0
02/07:00pm E 6 9 - - - - - - - 15.9 1018.8 0.0
02/06:30pm ESE 6 8 - - - - - - - 16.1 1018.6 0.0
02/06:00pm ESE 7 9 - - - - - - - 16.1 1018.5 0.0
02/05:30pm E 5 7 - - - - - - - 16.0 1018.2 0.0
02/05:00pm ESE 6 9 - - - - - - - 16.1 1017.8 0.0
02/04:30pm ESE 6 9 - - - - - - - 16.6 1017.5 0.0
02/04:00pm SE 6 9 - - - - - - - 17.0 1017.4 0.0
02/03:30pm ESE 7 9 - - - - - - - 17.3 1017.4 0.0
02/03:00pm SE 7 10 - - - - - - - 17.5 1017.4 0.0
02/02:30pm SE 8 11 - - - - - - - 17.7 1017.4 0.0
02/02:00pm SE 8 12 - - - - - - - 19.4 1017.4 0.0
02/01:30pm SE 8 12 - - - - - - - 19.4 1017.7 0.0
02/01:00pm SE 7 10 - - - - - - - 20.4 1018.0 0.0
02/12:30pm SE 8 12 - - - - - - - 19.9 1018.4 0.0
02/12:00pm SE 7 10 - - - - - - - 20.6 1018.8 0.0
02/11:30am WSW 6 9 - - - - - - - 20.6 1019.5 0.0
02/11:00am WSW 5 9 - - - - - - - 19.8 1020.0 0.0
02/10:30am NNW 6 10 - - - - - - - 20.2 1020.5 0.0
02/10:00am NW 6 9 - - - - - - - 18.5 1020.8 0.0
02/09:30am SW 3 6 - - - - - - - 17.4 1021.0 0.0
02/09:00am WNW 5 7 - - - - - - - 16.8 1021.2 0.0
02/08:30am NNW 6 9 - - - - - - - 16.2 1021.6 0.0
02/08:00am NNW 6 8 - - - - - - - 14.6 1021.4 0.0
02/07:30am NNW 5 7 - - - - - - - 12.7 1021.6 0.0
02/07:00am NNW 5 7 - - - - - - - 11.0 1021.5 0.0
02/06:30am NNW 6 7 - - - - - - - 9.8 1021.3 0.0
02/06:00am NNW 5 6 - - - - - - - 9.0 1021.0 0.0
02/05:30am NNW 5 6 - - - - - - - 9.1 1020.8 0.0
02/05:00am NW 5 6 - - - - - - - 8.8 1020.6 0.0
02/04:30am NNW 5 6 - - - - - - - 8.8 1020.5 0.0
02/04:00am NNW 5 7 - - - - - - - 8.8 1020.5 0.0
02/03:30am NNW 4 6 - - - - - - - 8.4 1020.2 0.0
02/03:00am NNW 5 6 - - - - - - - 7.9 1020.2 0.0
02/02:30am NNW 5 6 - - - - - - - 7.6 1020.2 0.0
02/02:00am NNW 4 5 - - - - - - - 8.0 1020.5 0.0
02/01:30am ESE 3 4 - - - - - - - 8.8 1020.7 0.0
02/01:00am SE 3 4 - - - - - - - 9.8 1021.0 0.0
02/12:30am SSE 4 5 - - - - - - - 11.7 1021.2 0.0
02/12:00am SSE 5 7 - - - - - - - 12.0 1021.3 0.0
 
Date/Time
WST
Wind Sea
Height
m
Swell Vis
km
Cloud Weather Temp
°C
Press
MSL
hPa
Rain since
9am
mm
Dir  Spd
kts
Gust
kts
Height
m
Period
s
Dir
01/11:30pm SSE 5 7 - - - - - - - 12.1 1021.4 0.0
01/11:00pm SSE 7 9 - - - - - - - 12.2 1021.6 0.0
01/10:30pm SSE 7 9 - - - - - - - 12.2 1021.9 0.0
01/10:00pm SSE 7 9 - - - - - - - 12.8 1022.2 0.0
01/09:30pm SSE 7 10 - - - - - - - 13.1 1022.4 0.0
01/09:00pm S 8 12 - - - - - - - 13.6 1022.5 0.0
01/08:30pm S 8 12 - - - - - - - 14.1 1022.6 0.0
01/08:00pm S 7 11 - - - - - - - 14.3 1022.7 0.0
01/07:30pm SSW 7 11 - - - - - - - 13.9 1022.7 0.0
01/07:00pm SSW 8 14 - - - - - - - 14.2 1022.6 0.0
01/06:30pm SSW 7 9 - - - - - - - 14.0 1022.2 0.0
01/06:00pm S 8 14 - - - - - - - 14.6 1022.0 0.0
01/05:30pm S 8 12 - - - - - - - 14.9 1021.6 0.0
01/05:00pm S 8 14 - - - - - - - 14.9 1021.6 0.0
01/04:30pm SSW 9 16 - - - - - - - 15.7 1021.3 0.0
01/04:00pm SSW 11 16 - - - - - - - 16.2 1021.1 0.0
01/03:30pm SSW 11 18 - - - - - - - 16.5 1020.8 0.0
01/03:00pm SSW 11 17 - - - - - - - 16.8 1020.4 0.0
01/02:30pm SSW 12 17 - - - - - - - 17.0 1020.0 0.0
01/02:00pm SSW 11 17 - - - - - - - 16.9 1019.6 0.0
01/01:30pm SSW 12 19 - - - - - - - 17.4 1019.3 0.0
01/01:00pm SSW 14 19 - - - - - - - 18.1 1019.1 0.0
01/12:30pm S 10 14 - - - - - - - 18.3 1019.2 0.0
01/12:00pm S 11 16 - - - - - - - 18.3 1019.5 0.0
01/11:30am S 11 17 - - - - - - - 19.0 1019.6 0.0
01/11:00am S 11 16 - - - - - - - 19.8 1019.7 0.0
01/10:30am S 11 16 - - - - - - - 19.9 1020.0 0.0
01/10:00am S 11 16 - - - - - - - 19.8 1020.1 0.0
01/09:30am S 9 15 - - - - - - - 19.9 1020.0 0.0
01/09:00am S 11 18 - - - - - - - 19.7 1019.8 0.0
01/08:30am S 11 17 - - - - - - - 19.3 1019.7 0.0
01/08:00am SSW 9 14 - - - - - - - 18.6 1019.5 0.0
01/07:30am SSW 11 17 - - - - - - - 18.1 1019.1 0.0
01/07:00am SSW 11 16 - - - - - - - 18.1 1018.3 0.0
01/06:30am SSW 9 15 - - - - - - - 18.4 1018.0 0.0
01/06:00am SSW 10 15 - - - - - - - 18.1 1017.4 0.0
01/05:30am SW 13 21 - - - - - - - 19.2 1016.7 0.0
01/05:00am WNW 11 18 - - - - - - - 22.1 1016.1 0.0
01/04:30am WNW 10 15 - - - - - - - 21.8 1015.6 0.0
01/04:00am W 10 16 - - - - - - - 20.3 1015.9 0.0
01/03:30am NNW 11 16 - - - - - - - 20.7 1014.1 0.0
01/03:00am NNW 11 16 - - - - - - - 20.7 1014.0 0.0
01/02:30am NNW 11 16 - - - - - - - 20.5 1014.2 0.0
01/02:00am N 11 14 - - - - - - - 20.0 1014.4 0.0
01/01:30am N 11 15 - - - - - - - 19.9 1014.7 0.0
01/01:00am N 11 16 - - - - - - - 19.6 1015.1 0.0
01/12:30am N 11 16 - - - - - - - 19.4 1015.5 0.0
01/12:00am N 10 14 - - - - - - - 19.5 1016.0 0.0
 
Date/Time
WST
Wind Sea
Height
m
Swell Vis
km
Cloud Weather Temp
°C
Press
MSL
hPa
Rain since
9am
mm
Dir  Spd
kts
Gust
kts
Height
m
Period
s
Dir
31/11:30pm N 10 15 - - - - - - - 19.7 1016.4 0.0
31/11:00pm N 9 14 - - - - - - - 20.2 1016.6 0.0
31/10:30pm N 9 13 - - - - - - - 20.6 1016.9 0.0
31/10:00pm N 9 13 - - - - - - - 20.6 1017.3 0.0
31/09:30pm N 8 12 - - - - - - - 20.7 1017.7 0.0
31/09:00pm N 8 10 - - - - - - - 20.6 1017.8 0.0
31/08:30pm N 8 11 - - - - - - - 20.9 1017.9 0.0
31/08:00pm N 8 10 - - - - - - - 20.6 1018.0 0.0
31/07:30pm N 8 9 - - - - - - - 20.6 1018.1 0.0
31/07:00pm N 8 9 - - - - - - - 21.2 1017.9 0.0
31/06:30pm N 7 8 - - - - - - - 21.4 1018.0 0.0
31/06:00pm N 6 7 - - - - - - - 22.3 1017.9 0.0
31/05:30pm NNW 6 6 - - - - - - - 24.3 1017.9 0.0
31/05:00pm NW 6 8 - - - - - - - 26.4 1017.7 0.0
31/04:30pm NW 9 14 - - - - - - - 28.0 1017.6 0.0
31/04:00pm NNW 11 16 - - - - - - - 28.8 1017.5 0.0
31/03:30pm NNW 11 16 - - - - - - - 29.4 1017.4 0.0
31/03:00pm NNW 11 18 - - - - - - - 29.2 1017.6 0.0
31/02:30pm NNW 11 18 - - - - - - - 29.3 1018.0 0.0
31/02:00pm N 11 16 - - - - - - - 29.7 1018.3 0.0
31/01:30pm N 11 17 - - - - - - - 29.7 1018.7 0.0
31/01:00pm NNW 11 18 - - - - - - - 29.2 1019.1 0.0
31/12:30pm NNW 13 19 - - - - - - - 29.0 1019.7 0.0
31/12:00pm N 13 18 - - - - - - - 28.6 1020.3 0.0
31/11:30am NNW 13 20 - - - - - - - 28.4 1021.0 0.0
31/11:00am N 13 19 - - - - - - - 27.3 1021.7 0.0
31/10:30am N 12 18 - - - - - - - 27.0 1022.4 0.0
31/10:00am N 14 19 - - - - - - - 25.5 1023.1 0.0
31/09:30am N 13 21 - - - - - - - 24.4 1023.4 0.0
31/09:00am N 15 22 - - - - - - - 23.1 1023.8 0.0
31/08:30am N 14 20 - - - - - - - 22.1 1024.1 0.0
31/08:00am N 14 21 - - - - - - - 19.5 1024.3 0.0
31/07:30am N 12 19 - - - - - - - 17.9 1024.3 0.0
31/07:00am NNE 13 18 - - - - - - - 17.0 1024.4 0.0
31/06:30am NNE 13 19 - - - - - - - 15.4 1024.1 0.0
31/06:00am NNE 11 17 - - - - - - - 14.7 1024.1 0.0
31/05:30am NNE 11 17 - - - - - - - 14.4 1024.1 0.0
31/05:00am NNE 10 15 - - - - - - - 14.5 1023.9 0.0
31/04:30am NNE 10 15 - - - - - - - 14.4 1023.9 0.0
31/04:00am NNE 9 13 - - - - - - - 14.4 1023.9 0.0
31/03:30am NNE 10 13 - - - - - - - 14.7 1023.9 0.0
31/03:00am NNE 9 15 - - - - - - - 14.9 1023.9 0.0
31/02:30am NNE 9 12 - - - - - - - 14.6 1024.0 0.0
31/02:00am NE 9 14 - - - - - - - 14.8 1024.3 0.0

Other formats

Comma delimited format used in spreadsheet applications
http://www.bom.gov.au/fwo/IDW60701/IDW60701.94647.axf

JavaScript Object Notation format (JSON) in row-major order
http://www.bom.gov.au/fwo/IDW60701/IDW60701.94647.json

Data quality

Most of these data are generated automatically and are frequently updated. Quality checks on data are not normally performed. It is possible for incorrect values to appear. Refer to information at About Latest Weather Observations and please check the disclaimer before using these data.